sensor_id;sensor_type;location;lat;lon;timestamp;temperature;humidity
23873;DHT22;42884;50.718;4.630;2024-01-15T00:00:09;2.30;99.90
23873;DHT22;42884;50.718;4.630;2024-01-15T00:02:35;2.30;99.90
23873;DHT22;42884;50.718;4.630;2024-01-15T00:05:00;2.30;99.90
23873;DHT22;42884;50.718;4.630;2024-01-15T00:07:26;2.40;99.90
23873;DHT22;42884;50.718;4.630;2024-01-15T00:09:55;2.30;99.90
23873;DHT22;42884;50.718;4.630;2024-01-15T00:12:20;2.40;99.90
23873;DHT22;42884;50.718;4.630;2024-01-15T00:14:46;2.40;99.90
23873;DHT22;42884;50.718;4.630;2024-01-15T00:17:21;2.30;99.90
23873;DHT22;42884;50.718;4.630;2024-01-15T00:19:46;2.50;99.90
23873;DHT22;42884;50.718;4.630;2024-01-15T00:22:12;2.50;99.90
23873;DHT22;42884;50.718;4.630;2024-01-15T00:24:38;2.50;99.90
23873;DHT22;42884;50.718;4.630;2024-01-15T00:27:05;2.40;99.90
23873;DHT22;42884;50.718;4.630;2024-01-15T00:29:30;2.50;99.90
23873;DHT22;42884;50.718;4.630;2024-01-15T00:31:59;2.50;99.90
23873;DHT22;42884;50.718;4.630;2024-01-15T00:34:24;2.50;99.90
23873;DHT22;42884;50.718;4.630;2024-01-15T00:36:56;2.50;99.90
23873;DHT22;42884;50.718;4.630;2024-01-15T00:39:25;2.50;99.90
23873;DHT22;42884;50.718;4.630;2024-01-15T00:41:51;2.80;99.90
23873;DHT22;42884;50.718;4.630;2024-01-15T00:44:17;2.50;99.90
23873;DHT22;42884;50.718;4.630;2024-01-15T00:46:43;2.60;99.90
23873;DHT22;42884;50.718;4.630;2024-01-15T00:49:09;2.50;99.90
23873;DHT22;42884;50.718;4.630;2024-01-15T00:51:35;2.50;99.90
23873;DHT22;42884;50.718;4.630;2024-01-15T00:54:03;2.50;99.90
23873;DHT22;42884;50.718;4.630;2024-01-15T00:56:33;2.60;99.90
23873;DHT22;42884;50.718;4.630;2024-01-15T00:59:00;2.60;99.90
23873;DHT22;42884;50.718;4.630;2024-01-15T01:01:25;2.70;99.90
23873;DHT22;42884;50.718;4.630;2024-01-15T01:03:51;2.60;99.90
23873;DHT22;42884;50.718;4.630;2024-01-15T01:06:17;2.60;99.90
23873;DHT22;42884;50.718;4.630;2024-01-15T01:08:45;2.60;99.90
23873;DHT22;42884;50.718;4.630;2024-01-15T01:11:14;2.70;99.90
23873;DHT22;42884;50.718;4.630;2024-01-15T01:13:39;2.70;99.90
23873;DHT22;42884;50.718;4.630;2024-01-15T01:16:08;2.70;99.90
23873;DHT22;42884;50.718;4.630;2024-01-15T01:18:39;2.70;99.90
23873;DHT22;42884;50.718;4.630;2024-01-15T01:21:05;2.60;99.90
23873;DHT22;42884;50.718;4.630;2024-01-15T01:23:39;2.80;99.90
23873;DHT22;42884;50.718;4.630;2024-01-15T01:26:17;2.80;99.90
23873;DHT22;42884;50.718;4.630;2024-01-15T01:28:43;2.90;99.90
23873;DHT22;42884;50.718;4.630;2024-01-15T01:31:08;2.90;99.90
23873;DHT22;42884;50.718;4.630;2024-01-15T01:33:38;3.00;99.90
23873;DHT22;42884;50.718;4.630;2024-01-15T01:39:09;3.10;99.90
23873;DHT22;42884;50.718;4.630;2024-01-15T01:41:35;3.00;99.90
23873;DHT22;42884;50.718;4.630;2024-01-15T01:44:00;3.10;99.90
23873;DHT22;42884;50.718;4.630;2024-01-15T01:46:27;2.90;99.90
23873;DHT22;42884;50.718;4.630;2024-01-15T01:48:53;2.80;99.90
23873;DHT22;42884;50.718;4.630;2024-01-15T01:51:19;2.70;99.90
23873;DHT22;42884;50.718;4.630;2024-01-15T01:53:45;2.80;99.90
23873;DHT22;42884;50.718;4.630;2024-01-15T01:56:11;2.90;99.90
23873;DHT22;42884;50.718;4.630;2024-01-15T01:58:38;2.90;99.90
23873;DHT22;42884;50.718;4.630;2024-01-15T02:01:03;2.70;99.90
23873;DHT22;42884;50.718;4.630;2024-01-15T02:03:30;2.80;99.90
23873;DHT22;42884;50.718;4.630;2024-01-15T02:05:56;2.80;99.90
23873;DHT22;42884;50.718;4.630;2024-01-15T02:08:22;2.90;99.90
23873;DHT22;42884;50.718;4.630;2024-01-15T02:10:48;2.90;99.90
23873;DHT22;42884;50.718;4.630;2024-01-15T02:13:13;3.00;99.90
23873;DHT22;42884;50.718;4.630;2024-01-15T02:15:39;3.00;99.90
23873;DHT22;42884;50.718;4.630;2024-01-15T02:18:05;3.00;99.90
23873;DHT22;42884;50.718;4.630;2024-01-15T02:20:33;3.00;99.90
23873;DHT22;42884;50.718;4.630;2024-01-15T02:25:27;3.10;99.90
23873;DHT22;42884;50.718;4.630;2024-01-15T02:27:52;3.00;99.90
23873;DHT22;42884;50.718;4.630;2024-01-15T02:30:18;3.00;99.90
23873;DHT22;42884;50.718;4.630;2024-01-15T02:32:44;3.00;99.90
23873;DHT22;42884;50.718;4.630;2024-01-15T02:35:10;3.00;99.90
23873;DHT22;42884;50.718;4.630;2024-01-15T02:37:35;3.00;99.90
23873;DHT22;42884;50.718;4.630;2024-01-15T02:40:01;2.90;99.90
23873;DHT22;42884;50.718;4.630;2024-01-15T02:42:27;2.90;99.90
23873;DHT22;42884;50.718;4.630;2024-01-15T02:44:52;3.10;99.90
23873;DHT22;42884;50.718;4.630;2024-01-15T02:47:18;3.00;99.90
23873;DHT22;42884;50.718;4.630;2024-01-15T02:49:43;3.10;99.90
23873;DHT22;42884;50.718;4.630;2024-01-15T02:52:09;3.10;99.90
23873;DHT22;42884;50.718;4.630;2024-01-15T02:54:34;3.30;99.90
23873;DHT22;42884;50.718;4.630;2024-01-15T02:57:00;3.30;99.90
23873;DHT22;42884;50.718;4.630;2024-01-15T02:59:26;3.30;99.90
23873;DHT22;42884;50.718;4.630;2024-01-15T03:01:51;3.20;99.90
23873;DHT22;42884;50.718;4.630;2024-01-15T03:04:17;3.20;99.90
23873;DHT22;42884;50.718;4.630;2024-01-15T03:06:42;3.30;99.90
23873;DHT22;42884;50.718;4.630;2024-01-15T03:09:08;3.30;99.90
23873;DHT22;42884;50.718;4.630;2024-01-15T03:11:37;3.00;99.90
23873;DHT22;42884;50.718;4.630;2024-01-15T03:14:03;3.10;99.90
23873;DHT22;42884;50.718;4.630;2024-01-15T03:16:29;3.10;99.90
23873;DHT22;42884;50.718;4.630;2024-01-15T03:18:54;3.00;99.90
23873;DHT22;42884;50.718;4.630;2024-01-15T03:21:20;2.90;99.90
23873;DHT22;42884;50.718;4.630;2024-01-15T03:23:45;2.90;99.90
23873;DHT22;42884;50.718;4.630;2024-01-15T03:26:11;2.90;99.90
23873;DHT22;42884;50.718;4.630;2024-01-15T03:28:37;2.80;99.90
23873;DHT22;42884;50.718;4.630;2024-01-15T03:31:02;3.00;99.90
23873;DHT22;42884;50.718;4.630;2024-01-15T03:33:28;3.00;99.90
23873;DHT22;42884;50.718;4.630;2024-01-15T03:35:54;2.80;99.90
23873;DHT22;42884;50.718;4.630;2024-01-15T03:38:19;2.90;99.90
23873;DHT22;42884;50.718;4.630;2024-01-15T03:40:45;2.90;99.90
23873;DHT22;42884;50.718;4.630;2024-01-15T03:43:10;2.90;99.90
23873;DHT22;42884;50.718;4.630;2024-01-15T03:45:36;2.70;99.90
23873;DHT22;42884;50.718;4.630;2024-01-15T03:48:02;2.80;99.90
23873;DHT22;42884;50.718;4.630;2024-01-15T03:50:27;2.80;99.90
23873;DHT22;42884;50.718;4.630;2024-01-15T03:52:53;2.90;99.90
23873;DHT22;42884;50.718;4.630;2024-01-15T03:55:18;2.90;99.90
23873;DHT22;42884;50.718;4.630;2024-01-15T03:57:44;2.90;99.90
23873;DHT22;42884;50.718;4.630;2024-01-15T04:00:10;3.00;99.90
23873;DHT22;42884;50.718;4.630;2024-01-15T04:02:35;2.90;99.90
23873;DHT22;42884;50.718;4.630;2024-01-15T04:05:01;2.90;99.90
23873;DHT22;42884;50.718;4.630;2024-01-15T04:07:27;2.90;99.90
23873;DHT22;42884;50.718;4.630;2024-01-15T04:09:52;2.70;99.90
23873;DHT22;42884;50.718;4.630;2024-01-15T04:12:18;2.60;99.90
23873;DHT22;42884;50.718;4.630;2024-01-15T04:14:43;2.70;99.90
23873;DHT22;42884;50.718;4.630;2024-01-15T04:17:09;2.70;99.90
23873;DHT22;42884;50.718;4.630;2024-01-15T04:19:34;2.80;99.90
23873;DHT22;42884;50.718;4.630;2024-01-15T04:22:00;2.80;99.90
23873;DHT22;42884;50.718;4.630;2024-01-15T04:24:26;2.80;99.90
23873;DHT22;42884;50.718;4.630;2024-01-15T04:26:51;2.90;99.90
23873;DHT22;42884;50.718;4.630;2024-01-15T04:29:17;2.80;99.90
23873;DHT22;42884;50.718;4.630;2024-01-15T04:31:43;2.80;99.90
23873;DHT22;42884;50.718;4.630;2024-01-15T04:34:08;2.80;99.90
23873;DHT22;42884;50.718;4.630;2024-01-15T04:36:40;2.70;99.90
23873;DHT22;42884;50.718;4.630;2024-01-15T04:39:06;2.70;99.90
23873;DHT22;42884;50.718;4.630;2024-01-15T04:41:33;2.70;99.90
23873;DHT22;42884;50.718;4.630;2024-01-15T04:43:58;2.80;99.90
23873;DHT22;42884;50.718;4.630;2024-01-15T04:46:25;2.80;99.90
23873;DHT22;42884;50.718;4.630;2024-01-15T04:48:51;2.80;99.90
23873;DHT22;42884;50.718;4.630;2024-01-15T04:51:16;2.90;99.90
23873;DHT22;42884;50.718;4.630;2024-01-15T04:53:42;3.00;99.90
23873;DHT22;42884;50.718;4.630;2024-01-15T04:56:08;2.90;99.90
23873;DHT22;42884;50.718;4.630;2024-01-15T04:58:33;3.10;99.90
23873;DHT22;42884;50.718;4.630;2024-01-15T05:00:59;2.90;99.90
23873;DHT22;42884;50.718;4.630;2024-01-15T05:03:24;3.00;99.90
23873;DHT22;42884;50.718;4.630;2024-01-15T05:05:50;3.00;99.90
23873;DHT22;42884;50.718;4.630;2024-01-15T05:08:15;3.00;99.90
23873;DHT22;42884;50.718;4.630;2024-01-15T05:10:41;2.90;99.90
23873;DHT22;42884;50.718;4.630;2024-01-15T05:13:07;2.90;99.90
23873;DHT22;42884;50.718;4.630;2024-01-15T05:15:32;2.90;99.90
23873;DHT22;42884;50.718;4.630;2024-01-15T05:17:58;2.80;99.90
23873;DHT22;42884;50.718;4.630;2024-01-15T05:20:23;2.80;99.90
23873;DHT22;42884;50.718;4.630;2024-01-15T05:22:49;2.80;99.90
23873;DHT22;42884;50.718;4.630;2024-01-15T05:25:15;2.90;99.90
23873;DHT22;42884;50.718;4.630;2024-01-15T05:27:40;2.70;99.90
23873;DHT22;42884;50.718;4.630;2024-01-15T05:30:06;2.70;99.90
23873;DHT22;42884;50.718;4.630;2024-01-15T05:32:31;2.80;99.90
23873;DHT22;42884;50.718;4.630;2024-01-15T05:34:57;2.80;99.90
23873;DHT22;42884;50.718;4.630;2024-01-15T05:37:25;2.90;99.90
23873;DHT22;42884;50.718;4.630;2024-01-15T05:39:50;2.90;99.90
23873;DHT22;42884;50.718;4.630;2024-01-15T05:42:16;3.00;99.90
23873;DHT22;42884;50.718;4.630;2024-01-15T05:44:42;3.00;99.90
23873;DHT22;42884;50.718;4.630;2024-01-15T05:47:07;3.00;99.90
23873;DHT22;42884;50.718;4.630;2024-01-15T05:49:33;2.90;99.90
23873;DHT22;42884;50.718;4.630;2024-01-15T05:51:58;2.90;99.90
23873;DHT22;42884;50.718;4.630;2024-01-15T05:54:24;3.00;99.90
23873;DHT22;42884;50.718;4.630;2024-01-15T05:56:49;2.90;99.90
23873;DHT22;42884;50.718;4.630;2024-01-15T05:59:15;2.90;99.90
23873;DHT22;42884;50.718;4.630;2024-01-15T06:01:41;2.90;99.90
23873;DHT22;42884;50.718;4.630;2024-01-15T06:04:06;2.80;99.90
23873;DHT22;42884;50.718;4.630;2024-01-15T06:06:32;2.70;99.90
23873;DHT22;42884;50.718;4.630;2024-01-15T06:08:57;2.60;99.90
23873;DHT22;42884;50.718;4.630;2024-01-15T06:11:30;2.70;99.90
23873;DHT22;42884;50.718;4.630;2024-01-15T06:13:56;2.70;99.90
23873;DHT22;42884;50.718;4.630;2024-01-15T06:16:23;2.70;99.90
23873;DHT22;42884;50.718;4.630;2024-01-15T06:18:48;2.80;99.90
23873;DHT22;42884;50.718;4.630;2024-01-15T06:21:14;2.70;99.90
23873;DHT22;42884;50.718;4.630;2024-01-15T06:23:40;2.60;99.90
23873;DHT22;42884;50.718;4.630;2024-01-15T06:26:06;2.40;99.90
23873;DHT22;42884;50.718;4.630;2024-01-15T06:28:31;2.40;99.90
23873;DHT22;42884;50.718;4.630;2024-01-15T06:30:57;2.40;99.90
23873;DHT22;42884;50.718;4.630;2024-01-15T06:33:23;2.40;99.90
23873;DHT22;42884;50.718;4.630;2024-01-15T06:35:49;2.50;99.90
23873;DHT22;42884;50.718;4.630;2024-01-15T06:38:15;2.50;99.90
23873;DHT22;42884;50.718;4.630;2024-01-15T06:40:41;2.50;99.90
23873;DHT22;42884;50.718;4.630;2024-01-15T06:43:11;2.60;99.90
23873;DHT22;42884;50.718;4.630;2024-01-15T06:45:37;2.70;99.90
23873;DHT22;42884;50.718;4.630;2024-01-15T06:48:02;2.70;99.90
23873;DHT22;42884;50.718;4.630;2024-01-15T06:50:28;2.70;99.90
23873;DHT22;42884;50.718;4.630;2024-01-15T06:52:54;2.60;99.90
23873;DHT22;42884;50.718;4.630;2024-01-15T06:55:19;2.70;99.90
23873;DHT22;42884;50.718;4.630;2024-01-15T06:57:45;2.60;99.90
23873;DHT22;42884;50.718;4.630;2024-01-15T07:00:10;2.50;99.90
23873;DHT22;42884;50.718;4.630;2024-01-15T07:02:36;2.50;99.90
23873;DHT22;42884;50.718;4.630;2024-01-15T07:05:02;2.50;99.90
23873;DHT22;42884;50.718;4.630;2024-01-15T07:07:30;2.50;99.90
23873;DHT22;42884;50.718;4.630;2024-01-15T07:09:56;2.60;99.90
23873;DHT22;42884;50.718;4.630;2024-01-15T07:12:21;2.60;99.90
23873;DHT22;42884;50.718;4.630;2024-01-15T07:14:47;2.50;99.90
23873;DHT22;42884;50.718;4.630;2024-01-15T07:17:13;2.50;99.90
23873;DHT22;42884;50.718;4.630;2024-01-15T07:19:38;2.60;99.90
23873;DHT22;42884;50.718;4.630;2024-01-15T07:22:04;2.70;99.90
23873;DHT22;42884;50.718;4.630;2024-01-15T07:24:30;2.60;99.90
23873;DHT22;42884;50.718;4.630;2024-01-15T07:26:55;2.60;99.90
23873;DHT22;42884;50.718;4.630;2024-01-15T07:29:21;2.60;99.90
23873;DHT22;42884;50.718;4.630;2024-01-15T07:31:50;2.60;99.90
23873;DHT22;42884;50.718;4.630;2024-01-15T07:34:16;2.50;99.90
23873;DHT22;42884;50.718;4.630;2024-01-15T07:36:43;2.50;99.90
23873;DHT22;42884;50.718;4.630;2024-01-15T07:39:09;2.50;99.90
23873;DHT22;42884;50.718;4.630;2024-01-15T07:41:34;2.40;99.90
23873;DHT22;42884;50.718;4.630;2024-01-15T07:44:00;2.50;99.90
23873;DHT22;42884;50.718;4.630;2024-01-15T07:46:25;2.50;99.90
23873;DHT22;42884;50.718;4.630;2024-01-15T07:48:51;2.50;99.90
23873;DHT22;42884;50.718;4.630;2024-01-15T07:51:21;2.50;99.90
23873;DHT22;42884;50.718;4.630;2024-01-15T07:53:47;2.40;99.90
23873;DHT22;42884;50.718;4.630;2024-01-15T07:56:13;2.40;99.90
23873;DHT22;42884;50.718;4.630;2024-01-15T07:58:38;2.30;99.90
23873;DHT22;42884;50.718;4.630;2024-01-15T08:01:04;2.40;99.90
23873;DHT22;42884;50.718;4.630;2024-01-15T08:03:30;2.40;99.90
23873;DHT22;42884;50.718;4.630;2024-01-15T08:05:55;2.40;99.90
23873;DHT22;42884;50.718;4.630;2024-01-15T08:08:22;2.40;99.90
23873;DHT22;42884;50.718;4.630;2024-01-15T08:10:48;2.40;99.90
23873;DHT22;42884;50.718;4.630;2024-01-15T08:13:14;2.40;99.90
23873;DHT22;42884;50.718;4.630;2024-01-15T08:15:40;2.50;99.90
23873;DHT22;42884;50.718;4.630;2024-01-15T08:18:06;2.40;99.90
23873;DHT22;42884;50.718;4.630;2024-01-15T08:20:32;2.40;99.90
23873;DHT22;42884;50.718;4.630;2024-01-15T08:22:57;2.30;99.90
23873;DHT22;42884;50.718;4.630;2024-01-15T08:28:44;2.30;99.90
23873;DHT22;42884;50.718;4.630;2024-01-15T08:31:10;2.20;99.90
23873;DHT22;42884;50.718;4.630;2024-01-15T08:33:36;2.20;99.90
23873;DHT22;42884;50.718;4.630;2024-01-15T08:36:01;2.10;99.90
23873;DHT22;42884;50.718;4.630;2024-01-15T08:38:27;2.10;99.90
23873;DHT22;42884;50.718;4.630;2024-01-15T08:40:53;2.10;99.90
23873;DHT22;42884;50.718;4.630;2024-01-15T08:43:22;2.10;99.90
23873;DHT22;42884;50.718;4.630;2024-01-15T08:45:47;2.20;99.90
23873;DHT22;42884;50.718;4.630;2024-01-15T08:48:13;2.20;99.90
23873;DHT22;42884;50.718;4.630;2024-01-15T08:50:39;2.20;99.90
23873;DHT22;42884;50.718;4.630;2024-01-15T08:53:04;2.40;99.90
23873;DHT22;42884;50.718;4.630;2024-01-15T08:55:30;2.50;99.90
23873;DHT22;42884;50.718;4.630;2024-01-15T08:57:56;2.50;99.90
23873;DHT22;42884;50.718;4.630;2024-01-15T09:00:21;2.50;99.90
23873;DHT22;42884;50.718;4.630;2024-01-15T09:02:47;2.60;99.90
23873;DHT22;42884;50.718;4.630;2024-01-15T09:05:12;2.70;99.90
23873;DHT22;42884;50.718;4.630;2024-01-15T09:07:38;2.80;99.90
23873;DHT22;42884;50.718;4.630;2024-01-15T09:10:04;2.80;99.90
23873;DHT22;42884;50.718;4.630;2024-01-15T09:12:30;3.00;99.90
23873;DHT22;42884;50.718;4.630;2024-01-15T09:14:55;3.00;99.90
23873;DHT22;42884;50.718;4.630;2024-01-15T09:17:21;3.10;99.90
23873;DHT22;42884;50.718;4.630;2024-01-15T09:19:49;3.10;99.90
23873;DHT22;42884;50.718;4.630;2024-01-15T09:22:14;3.10;99.90
23873;DHT22;42884;50.718;4.630;2024-01-15T09:24:44;3.20;99.90
23873;DHT22;42884;50.718;4.630;2024-01-15T09:27:09;3.20;99.90
23873;DHT22;42884;50.718;4.630;2024-01-15T09:29:35;3.10;99.90
23873;DHT22;42884;50.718;4.630;2024-01-15T09:32:05;3.10;99.90
23873;DHT22;42884;50.718;4.630;2024-01-15T09:34:31;3.30;99.90
23873;DHT22;42884;50.718;4.630;2024-01-15T09:36:56;3.10;99.90
23873;DHT22;42884;50.718;4.630;2024-01-15T09:39:22;3.10;99.90
23873;DHT22;42884;50.718;4.630;2024-01-15T09:41:49;3.10;99.90
23873;DHT22;42884;50.718;4.630;2024-01-15T09:44:15;3.00;99.90
23873;DHT22;42884;50.718;4.630;2024-01-15T09:46:41;2.90;99.90
23873;DHT22;42884;50.718;4.630;2024-01-15T09:49:08;2.90;99.90
23873;DHT22;42884;50.718;4.630;2024-01-15T09:51:34;3.00;99.90
23873;DHT22;42884;50.718;4.630;2024-01-15T09:54:02;3.00;99.90
23873;DHT22;42884;50.718;4.630;2024-01-15T09:56:27;3.00;99.90
23873;DHT22;42884;50.718;4.630;2024-01-15T09:58:53;3.00;99.90
23873;DHT22;42884;50.718;4.630;2024-01-15T10:01:21;3.00;99.90
23873;DHT22;42884;50.718;4.630;2024-01-15T10:03:47;3.00;99.90
23873;DHT22;42884;50.718;4.630;2024-01-15T10:06:16;3.10;99.90
23873;DHT22;42884;50.718;4.630;2024-01-15T10:08:43;3.20;99.90
23873;DHT22;42884;50.718;4.630;2024-01-15T10:11:12;3.30;99.90
23873;DHT22;42884;50.718;4.630;2024-01-15T10:13:38;3.30;99.90
23873;DHT22;42884;50.718;4.630;2024-01-15T10:16:04;3.40;99.90
23873;DHT22;42884;50.718;4.630;2024-01-15T10:18:30;3.50;99.90
23873;DHT22;42884;50.718;4.630;2024-01-15T10:20:56;3.60;99.90
23873;DHT22;42884;50.718;4.630;2024-01-15T10:23:23;3.60;99.90
23873;DHT22;42884;50.718;4.630;2024-01-15T10:25:48;3.70;99.90
23873;DHT22;42884;50.718;4.630;2024-01-15T10:28:14;3.80;99.90
23873;DHT22;42884;50.718;4.630;2024-01-15T10:30:39;3.80;99.90
23873;DHT22;42884;50.718;4.630;2024-01-15T10:33:05;3.60;99.90
23873;DHT22;42884;50.718;4.630;2024-01-15T10:35:31;3.70;99.90
23873;DHT22;42884;50.718;4.630;2024-01-15T10:37:58;3.80;99.90
23873;DHT22;42884;50.718;4.630;2024-01-15T10:40:23;3.80;99.90
23873;DHT22;42884;50.718;4.630;2024-01-15T10:42:49;3.90;99.90
23873;DHT22;42884;50.718;4.630;2024-01-15T10:45:15;4.20;99.90
23873;DHT22;42884;50.718;4.630;2024-01-15T10:47:40;4.30;99.90
23873;DHT22;42884;50.718;4.630;2024-01-15T10:50:06;4.70;99.90
23873;DHT22;42884;50.718;4.630;2024-01-15T10:52:39;5.30;99.90
23873;DHT22;42884;50.718;4.630;2024-01-15T10:55:14;6.40;99.90
23873;DHT22;42884;50.718;4.630;2024-01-15T10:57:39;7.50;99.90
23873;DHT22;42884;50.718;4.630;2024-01-15T11:00:05;8.00;99.90
23873;DHT22;42884;50.718;4.630;2024-01-15T11:02:32;7.70;99.90
23873;DHT22;42884;50.718;4.630;2024-01-15T11:04:58;7.50;99.90
23873;DHT22;42884;50.718;4.630;2024-01-15T11:07:24;6.90;99.90
23873;DHT22;42884;50.718;4.630;2024-01-15T11:09:51;6.30;99.90
23873;DHT22;42884;50.718;4.630;2024-01-15T11:12:16;6.00;99.90
23873;DHT22;42884;50.718;4.630;2024-01-15T11:14:46;6.30;99.90
23873;DHT22;42884;50.718;4.630;2024-01-15T11:17:12;7.10;99.90
23873;DHT22;42884;50.718;4.630;2024-01-15T11:19:42;7.20;99.90
23873;DHT22;42884;50.718;4.630;2024-01-15T11:22:08;6.90;99.90
23873;DHT22;42884;50.718;4.630;2024-01-15T11:27:01;6.90;99.90
23873;DHT22;42884;50.718;4.630;2024-01-15T11:34:20;7.30;99.90
23873;DHT22;42884;50.718;4.630;2024-01-15T11:41:59;6.50;99.90
23873;DHT22;42884;50.718;4.630;2024-01-15T11:44:25;6.50;99.90
23873;DHT22;42884;50.718;4.630;2024-01-15T11:47:04;6.30;99.90
23873;DHT22;42884;50.718;4.630;2024-01-15T11:52:07;6.30;99.90
23873;DHT22;42884;50.718;4.630;2024-01-15T11:54:34;6.60;99.90
23873;DHT22;42884;50.718;4.630;2024-01-15T11:57:04;7.20;99.90
23873;DHT22;42884;50.718;4.630;2024-01-15T11:59:32;7.40;99.90
23873;DHT22;42884;50.718;4.630;2024-01-15T12:01:58;7.60;99.90
23873;DHT22;42884;50.718;4.630;2024-01-15T12:04:23;7.70;99.90
23873;DHT22;42884;50.718;4.630;2024-01-15T12:06:49;8.30;99.90
23873;DHT22;42884;50.718;4.630;2024-01-15T12:09:14;8.90;99.90
23873;DHT22;42884;50.718;4.630;2024-01-15T12:11:42;9.50;99.90
23873;DHT22;42884;50.718;4.630;2024-01-15T12:14:10;9.80;99.90
23873;DHT22;42884;50.718;4.630;2024-01-15T12:16:35;10.50;99.90
23873;DHT22;42884;50.718;4.630;2024-01-15T12:19:01;10.70;99.90
23873;DHT22;42884;50.718;4.630;2024-01-15T12:21:27;11.70;99.90
23873;DHT22;42884;50.718;4.630;2024-01-15T12:23:52;12.50;99.90
23873;DHT22;42884;50.718;4.630;2024-01-15T12:26:19;11.90;99.90
23873;DHT22;42884;50.718;4.630;2024-01-15T12:28:45;11.70;99.90
23873;DHT22;42884;50.718;4.630;2024-01-15T12:31:11;11.30;99.90
23873;DHT22;42884;50.718;4.630;2024-01-15T12:33:36;10.90;99.90
23873;DHT22;42884;50.718;4.630;2024-01-15T12:36:02;11.00;99.90
23873;DHT22;42884;50.718;4.630;2024-01-15T12:38:29;11.50;99.90
23873;DHT22;42884;50.718;4.630;2024-01-15T12:40:54;10.70;99.90
23873;DHT22;42884;50.718;4.630;2024-01-15T12:43:20;9.80;99.90
23873;DHT22;42884;50.718;4.630;2024-01-15T12:45:46;9.40;99.90
23873;DHT22;42884;50.718;4.630;2024-01-15T12:48:11;10.10;99.90
23873;DHT22;42884;50.718;4.630;2024-01-15T12:50:38;11.10;99.90
23873;DHT22;42884;50.718;4.630;2024-01-15T12:53:04;12.00;99.90
23873;DHT22;42884;50.718;4.630;2024-01-15T12:55:30;12.10;99.90
23873;DHT22;42884;50.718;4.630;2024-01-15T12:57:55;11.30;99.90
23873;DHT22;42884;50.718;4.630;2024-01-15T13:00:21;10.80;99.90
23873;DHT22;42884;50.718;4.630;2024-01-15T13:02:46;10.90;99.90
23873;DHT22;42884;50.718;4.630;2024-01-15T13:05:12;11.20;99.90
23873;DHT22;42884;50.718;4.630;2024-01-15T13:07:38;10.70;99.90
23873;DHT22;42884;50.718;4.630;2024-01-15T13:10:04;9.80;99.90
23873;DHT22;42884;50.718;4.630;2024-01-15T13:12:29;9.20;99.90
23873;DHT22;42884;50.718;4.630;2024-01-15T13:14:55;8.60;99.90
23873;DHT22;42884;50.718;4.630;2024-01-15T13:17:21;7.90;99.90
23873;DHT22;42884;50.718;4.630;2024-01-15T13:19:47;7.40;99.90
23873;DHT22;42884;50.718;4.630;2024-01-15T13:22:12;6.90;99.90
23873;DHT22;42884;50.718;4.630;2024-01-15T13:24:39;6.50;99.90
23873;DHT22;42884;50.718;4.630;2024-01-15T13:27:05;6.20;99.90
23873;DHT22;42884;50.718;4.630;2024-01-15T13:29:31;6.00;99.90
23873;DHT22;42884;50.718;4.630;2024-01-15T13:31:57;6.00;99.90
23873;DHT22;42884;50.718;4.630;2024-01-15T13:34:23;6.00;99.90
23873;DHT22;42884;50.718;4.630;2024-01-15T13:36:49;5.80;99.90
23873;DHT22;42884;50.718;4.630;2024-01-15T13:39:18;5.70;99.90
23873;DHT22;42884;50.718;4.630;2024-01-15T13:41:46;5.60;99.90
23873;DHT22;42884;50.718;4.630;2024-01-15T13:44:11;5.70;99.90
23873;DHT22;42884;50.718;4.630;2024-01-15T13:46:37;5.70;99.90
23873;DHT22;42884;50.718;4.630;2024-01-15T13:49:03;5.70;99.90
23873;DHT22;42884;50.718;4.630;2024-01-15T13:51:31;5.60;99.90
23873;DHT22;42884;50.718;4.630;2024-01-15T13:53:57;5.60;99.90
23873;DHT22;42884;50.718;4.630;2024-01-15T13:56:23;5.40;99.90
23873;DHT22;42884;50.718;4.630;2024-01-15T13:58:48;5.30;99.90
23873;DHT22;42884;50.718;4.630;2024-01-15T14:01:15;5.20;99.90
23873;DHT22;42884;50.718;4.630;2024-01-15T14:03:40;5.20;99.90
23873;DHT22;42884;50.718;4.630;2024-01-15T14:06:06;5.20;99.90
23873;DHT22;42884;50.718;4.630;2024-01-15T14:08:37;5.20;99.90
23873;DHT22;42884;50.718;4.630;2024-01-15T14:11:03;5.30;99.90
23873;DHT22;42884;50.718;4.630;2024-01-15T14:13:29;5.30;99.90
23873;DHT22;42884;50.718;4.630;2024-01-15T14:15:54;5.20;99.90
23873;DHT22;42884;50.718;4.630;2024-01-15T14:18:21;5.30;99.90
23873;DHT22;42884;50.718;4.630;2024-01-15T14:20:46;5.30;99.90
23873;DHT22;42884;50.718;4.630;2024-01-15T14:23:12;5.40;99.90
23873;DHT22;42884;50.718;4.630;2024-01-15T14:25:38;5.40;99.90
23873;DHT22;42884;50.718;4.630;2024-01-15T14:28:04;5.20;99.90
23873;DHT22;42884;50.718;4.630;2024-01-15T14:30:30;5.00;99.90
23873;DHT22;42884;50.718;4.630;2024-01-15T14:32:56;4.70;99.90
23873;DHT22;42884;50.718;4.630;2024-01-15T14:35:21;4.40;99.90
23873;DHT22;42884;50.718;4.630;2024-01-15T14:37:47;4.40;99.90
23873;DHT22;42884;50.718;4.630;2024-01-15T14:40:13;4.40;99.90
23873;DHT22;42884;50.718;4.630;2024-01-15T14:42:41;4.30;99.90
23873;DHT22;42884;50.718;4.630;2024-01-15T14:45:07;4.20;99.90
23873;DHT22;42884;50.718;4.630;2024-01-15T14:47:38;4.30;99.90
23873;DHT22;42884;50.718;4.630;2024-01-15T14:50:07;4.30;99.90
23873;DHT22;42884;50.718;4.630;2024-01-15T14:52:33;4.30;99.90
23873;DHT22;42884;50.718;4.630;2024-01-15T14:54:59;4.30;99.90
23873;DHT22;42884;50.718;4.630;2024-01-15T14:57:25;4.20;99.90
23873;DHT22;42884;50.718;4.630;2024-01-15T14:59:51;4.20;99.90
23873;DHT22;42884;50.718;4.630;2024-01-15T15:02:16;3.90;99.90
23873;DHT22;42884;50.718;4.630;2024-01-15T15:04:43;3.80;99.90
23873;DHT22;42884;50.718;4.630;2024-01-15T15:07:08;3.80;99.90
23873;DHT22;42884;50.718;4.630;2024-01-15T15:09:35;3.70;99.90
23873;DHT22;42884;50.718;4.630;2024-01-15T15:12:05;3.60;99.90
23873;DHT22;42884;50.718;4.630;2024-01-15T15:14:32;3.60;99.90
23873;DHT22;42884;50.718;4.630;2024-01-15T15:17:05;3.60;99.90
23873;DHT22;42884;50.718;4.630;2024-01-15T15:19:31;3.50;99.90
23873;DHT22;42884;50.718;4.630;2024-01-15T15:21:57;3.40;99.90
23873;DHT22;42884;50.718;4.630;2024-01-15T15:24:23;3.50;99.90
23873;DHT22;42884;50.718;4.630;2024-01-15T15:26:49;3.40;99.90
23873;DHT22;42884;50.718;4.630;2024-01-15T15:29:14;3.40;99.90
23873;DHT22;42884;50.718;4.630;2024-01-15T15:31:42;3.50;99.90
23873;DHT22;42884;50.718;4.630;2024-01-15T15:34:07;3.60;99.90
23873;DHT22;42884;50.718;4.630;2024-01-15T15:36:33;3.60;99.90
23873;DHT22;42884;50.718;4.630;2024-01-15T15:38:59;3.50;99.90
23873;DHT22;42884;50.718;4.630;2024-01-15T15:41:24;3.60;99.90
23873;DHT22;42884;50.718;4.630;2024-01-15T15:43:51;3.50;99.90
23873;DHT22;42884;50.718;4.630;2024-01-15T15:46:16;3.50;99.90
23873;DHT22;42884;50.718;4.630;2024-01-15T15:48:42;3.40;99.90
23873;DHT22;42884;50.718;4.630;2024-01-15T15:51:08;3.30;99.90
23873;DHT22;42884;50.718;4.630;2024-01-15T15:53:34;3.20;99.90
23873;DHT22;42884;50.718;4.630;2024-01-15T15:55:59;3.30;99.90
23873;DHT22;42884;50.718;4.630;2024-01-15T15:58:25;3.30;99.90
23873;DHT22;42884;50.718;4.630;2024-01-15T16:00:50;3.30;99.90